createdAt,value
2019-02-01T00:04:15.866Z,25.93
2019-02-01T00:10:10.885Z,24.78
2019-02-01T00:16:05.908Z,30.79
2019-02-01T00:22:00.899Z,28.11
2019-02-01T00:27:55.890Z,26.28
2019-02-01T00:33:50.884Z,22.82
2019-02-01T00:39:45.902Z,31.04
2019-02-01T00:45:40.923Z,32.05
2019-02-01T00:51:35.904Z,31.28
2019-02-01T00:57:30.892Z,31.95
2019-02-01T01:03:25.956Z,37.25
2019-02-01T01:09:20.911Z,41.88
2019-02-01T01:15:15.910Z,39.8
2019-02-01T01:21:10.922Z,42.12
2019-02-01T01:27:05.932Z,45.24
2019-02-01T01:33:00.908Z,45.74
2019-02-01T01:38:55.967Z,45.31
2019-02-01T01:44:50.906Z,43.67
2019-02-01T01:50:46.020Z,41.83
2019-02-01T01:56:40.956Z,42.11
2019-02-01T02:02:35.910Z,42.43
2019-02-01T02:08:30.994Z,40.04
2019-02-01T02:14:25.967Z,35.65
2019-02-01T02:20:20.932Z,32.12
2019-02-01T02:26:15.944Z,23.2
2019-02-01T02:32:10.926Z,21.22
2019-02-01T02:38:05.974Z,16.62
2019-02-01T02:44:00.984Z,10.98
2019-02-01T02:49:55.985Z,17.24
2019-02-01T02:55:50.942Z,16.04
2019-02-01T03:01:45.963Z,14.91
2019-02-01T03:07:40.994Z,13.65
2019-02-01T03:13:35.968Z,18.06
2019-02-01T03:19:30.973Z,18.82
2019-02-01T03:25:25.973Z,17.62
2019-02-01T03:31:21.037Z,20
2019-02-01T03:37:16.054Z,18.61
2019-02-01T03:43:11.003Z,19.54
2019-02-01T03:49:06.001Z,18.91
2019-02-01T03:55:00.985Z,18.99
2019-02-01T04:00:56.011Z,20.62
2019-02-01T04:06:50.982Z,19.18
2019-02-01T04:12:46.001Z,21.06
2019-02-01T04:18:40.993Z,19.08
2019-02-01T04:24:36.081Z,18.84
2019-02-01T04:30:31.016Z,17.52
2019-02-01T04:36:26.011Z,15.5
2019-02-01T04:42:20.994Z,15.23
2019-02-01T04:48:16.009Z,9.61
2019-02-01T04:54:11.016Z,8.79
2019-02-01T05:00:06.013Z,7.83
2019-02-01T05:06:01.035Z,6.67
2019-02-01T05:11:56.060Z,6.61
2019-02-01T05:17:51.038Z,6.07
2019-02-01T05:23:46.051Z,8.44
2019-02-01T05:29:41.032Z,10.85
2019-02-01T05:35:36.024Z,12.37
2019-02-01T05:41:31.023Z,14.97
2019-02-01T05:47:26.138Z,14.33
2019-02-01T05:53:21.050Z,13.6
2019-02-01T05:59:16.028Z,17.11
2019-02-01T06:05:11.074Z,13.99
2019-02-01T06:11:06.083Z,13.9
2019-02-01T06:17:01.091Z,15.5
2019-02-01T06:22:56.047Z,15.72
2019-02-01T06:28:51.111Z,15.85
2019-02-01T06:34:46.065Z,15.25
2019-02-01T06:40:41.102Z,15.26
2019-02-01T06:46:36.059Z,16.49
2019-02-01T06:52:31.073Z,17.5
2019-02-01T06:58:26.094Z,17.5
2019-02-01T07:04:21.091Z,17.27
2019-02-01T07:10:16.123Z,19.07
2019-02-01T07:16:11.076Z,17.8
2019-02-01T07:22:06.103Z,20.26
2019-02-01T07:28:01.091Z,20.91
2019-02-01T07:33:56.088Z,19.69
2019-02-01T07:39:51.103Z,18.44
2019-02-01T07:45:46.114Z,20.77
2019-02-01T07:51:41.097Z,21.04
2019-02-01T07:57:36.097Z,22.42
2019-02-01T08:03:31.108Z,25.44
2019-02-01T08:09:26.111Z,26.14
2019-02-01T08:15:21.112Z,28.14
2019-02-01T08:21:26.394Z,26.6
2019-02-01T08:27:11.111Z,30.55
2019-02-01T08:33:06.230Z,37.23
2019-02-01T08:39:01.170Z,37.67
2019-02-01T08:44:56.134Z,37.16
2019-02-01T08:50:51.119Z,33.97
2019-02-01T08:56:46.118Z,38.91
2019-02-01T09:02:41.129Z,52.93
2019-02-01T09:08:36.146Z,40.39
2019-02-01T09:14:31.157Z,52.59
2019-02-01T09:20:26.157Z,60.97
2019-02-01T09:26:21.195Z,63.36
2019-02-01T09:32:16.143Z,65.24
2019-02-01T09:38:11.181Z,55.62
2019-02-01T09:44:06.168Z,46.89
2019-02-01T09:50:01.153Z,61.13
2019-02-01T09:55:56.165Z,51.87
2019-02-01T10:01:51.192Z,48.23
2019-02-01T10:07:46.216Z,59.11
2019-02-01T10:13:41.221Z,54.46
2019-02-01T10:19:36.164Z,82.63
2019-02-01T10:25:31.195Z,71.5
2019-02-01T10:31:26.174Z,86.85
2019-02-01T10:37:21.168Z,72.51
2019-02-01T10:43:16.215Z,37.05
2019-02-01T10:49:11.192Z,24.84
2019-02-01T10:55:06.181Z,66.6
2019-02-01T11:01:01.190Z,73.94
2019-02-01T11:06:56.206Z,61.3
2019-02-01T11:12:51.192Z,57.66
2019-02-01T11:18:46.250Z,62.95
2019-02-01T11:24:41.203Z,59.15
2019-02-01T11:30:36.264Z,54.34
2019-02-01T11:36:31.243Z,45.93
2019-02-01T11:42:26.256Z,77.52
2019-02-01T11:48:21.206Z,36.99
2019-02-01T11:54:16.334Z,43.35
2019-02-01T12:00:11.703Z,40.79
2019-02-01T12:06:06.226Z,24.01
2019-02-01T12:12:01.262Z,22.07
2019-02-01T12:17:56.275Z,24.24
2019-02-01T12:23:51.265Z,20.12
2019-02-01T12:29:46.250Z,20.63
2019-02-01T12:35:41.273Z,20.6
2019-02-01T12:41:36.229Z,19.93
2019-02-01T12:47:31.239Z,27.63
2019-02-01T12:53:26.246Z,27.84
2019-02-01T12:59:21.274Z,17.19
2019-02-01T13:05:16.252Z,14.32
2019-02-01T13:11:11.294Z,23.73
2019-02-01T13:17:06.268Z,24.17
2019-02-01T13:23:01.283Z,36.6
2019-02-01T13:28:56.298Z,19.81
2019-02-01T13:34:51.320Z,18.69
2019-02-01T13:40:46.326Z,24.41
2019-02-01T13:46:41.316Z,22.59
2019-02-01T13:52:36.314Z,19.06
2019-02-01T13:58:31.282Z,17.73
2019-02-01T14:04:26.305Z,16.74
2019-02-01T14:10:21.290Z,18.11
2019-02-01T14:16:16.315Z,18.71
2019-02-01T14:22:11.295Z,17.59
2019-02-01T14:28:06.301Z,18.26
2019-02-01T14:34:01.305Z,22.88
2019-02-01T14:39:56.337Z,18.73
2019-02-01T14:45:51.312Z,19.03
2019-02-01T14:51:46.360Z,16.89
2019-02-01T14:57:41.390Z,19.25
2019-02-01T15:03:36.324Z,18.57
2019-02-01T15:09:31.321Z,15.65
2019-02-01T15:15:26.335Z,15.39
2019-02-01T15:21:21.389Z,14.82
2019-02-01T15:27:16.349Z,26.8
2019-02-01T15:33:11.344Z,26.16
2019-02-01T15:39:06.377Z,15.97
2019-02-01T15:45:01.361Z,13.87
2019-02-01T15:50:56.369Z,13.94
2019-02-01T15:56:51.439Z,20.44
2019-02-01T16:02:46.370Z,18.89
2019-02-01T16:08:41.373Z,17.33
2019-02-01T16:14:36.376Z,11.68
2019-02-01T16:20:32.934Z,20.75
2019-02-01T16:26:26.406Z,20.42
2019-02-01T16:32:21.377Z,26.9
2019-02-01T16:38:16.402Z,19.57
2019-02-01T16:44:11.487Z,16.34
2019-02-01T16:50:06.386Z,18.34
2019-02-01T16:56:01.469Z,42.8
2019-02-01T17:01:58.997Z,31.55
2019-02-01T17:07:51.389Z,31.1
2019-02-01T17:13:46.387Z,38.31
2019-02-01T17:19:41.431Z,41.04
2019-02-01T17:25:36.416Z,28.59
2019-02-01T17:31:31.436Z,26.32
2019-02-01T17:37:26.446Z,34.41
2019-02-01T17:43:21.438Z,19.66
2019-02-01T17:49:16.447Z,15.96
2019-02-01T17:55:11.448Z,17.25
2019-02-01T18:01:06.448Z,16.03
2019-02-01T18:07:01.442Z,15.02
2019-02-01T18:12:56.435Z,17.26
2019-02-01T18:18:51.439Z,14.43
2019-02-01T18:24:46.438Z,16.28
2019-02-01T18:30:41.493Z,15.34
2019-02-01T18:36:36.488Z,13.53
2019-02-01T18:42:31.437Z,12.14
2019-02-01T18:48:26.512Z,11.69
2019-02-01T18:54:21.483Z,12.85
2019-02-01T19:00:16.456Z,15.43
2019-02-01T19:06:11.471Z,16.01
2019-02-01T19:12:06.497Z,19.04
2019-02-01T19:18:01.476Z,24.01
2019-02-01T19:23:56.466Z,25.83
2019-02-01T19:29:51.465Z,34.54
2019-02-01T19:35:46.489Z,21.04
2019-02-01T19:41:41.482Z,28.74
2019-02-01T19:47:36.492Z,16.06
2019-02-01T19:53:31.503Z,8.09
2019-02-01T19:59:26.534Z,8.06
2019-02-01T20:05:21.517Z,7.01
2019-02-01T20:11:16.511Z,11.26
2019-02-01T20:17:11.539Z,10.13
2019-02-01T20:23:06.525Z,12.49
2019-02-01T20:29:01.570Z,9.15
2019-02-01T20:34:56.515Z,11.1
2019-02-01T20:40:51.527Z,11.44
2019-02-01T20:46:46.538Z,7.47
2019-02-01T20:52:41.550Z,9.11
2019-02-01T20:58:36.534Z,6.65
2019-02-01T21:04:31.540Z,6.95
2019-02-01T21:10:26.557Z,5.3
2019-02-01T21:16:21.590Z,5.2
2019-02-01T21:22:16.550Z,5.93
2019-02-01T21:28:11.544Z,7.3
2019-02-01T21:34:08.012Z,14.05
2019-02-01T21:40:01.554Z,6.85
2019-02-01T21:45:56.551Z,4.87
2019-02-01T21:51:51.558Z,4.87
2019-02-01T21:57:46.588Z,4.87
2019-02-01T22:03:41.579Z,3.7
2019-02-01T22:09:36.575Z,4.82
2019-02-01T22:15:31.580Z,5.47
2019-02-01T22:21:26.575Z,4.38
2019-02-01T22:27:21.575Z,3.93
2019-02-01T22:33:16.636Z,4.72
2019-02-01T22:39:11.603Z,4.12
2019-02-01T22:45:06.612Z,3.82
2019-02-01T22:51:01.626Z,3.41
2019-02-01T22:57:06.031Z,4.06
2019-02-01T23:02:51.611Z,4.28
2019-02-01T23:08:46.648Z,4.03
2019-02-01T23:14:41.644Z,4.2
2019-02-01T23:20:36.607Z,4.29
2019-02-01T23:26:31.621Z,3.85
2019-02-01T23:32:26.636Z,3.93
2019-02-01T23:38:21.661Z,3.95
2019-02-01T23:44:16.663Z,3.27
2019-02-01T23:50:11.626Z,2.93
2019-02-01T23:56:06.661Z,3.53
